Airfield :







YOU CAN JOIN US ON...

 
LOGIN :

Register | Disclaimer

   EN    FR    IT 

 









Legend :    VFR   Marginal VFR   IFR   Intensive IFR   Very Intensive IFR
Visi :
Ceiling :
>= 8 km
>= 3000ft
5 to 8 km
1000 to 3000 ft
1500m to 5 km
500 to 1000 ft
800 to 1500m
200 to 500 ft
< 800m
< 200 ft
Symbols :   Thunderstorms  Fog  Heavy snow  Heavy precipitations  Wind > 20 kt






- Airport Elevation : 930 ft


KEFK - Newport State

CURRENT METAR :
  • 250015Z AUTO 17004KT 10SM SCT020 BKN045 OVC110 21/17 A3009 RMK AO2 T02110172

EXPIRED METARs :
  • 242355Z AUTO 17006KT 10SM SCT045 OVC110 21/17 A3009 RMK AO2 T02120171 10266 20212
  • 242335Z AUTO 18006KT 10SM SCT045 OVC110 21/17 A3009 RMK AO2 T02140170
  • 242315Z AUTO 16011G18KT 10SM SCT034 SCT047 OVC110 22/17 A3008 RMK AO2 T02150172
  • 242255Z AUTO 17011G15KT 10SM -DZ SCT032 OVC110 22/18 A3009 RMK AO2 T02150175
  • 242235Z AUTO 16010G14KT 10SM BKN110 23/18 A3008 RMK AO2 T02250176
  • 242215Z AUTO 15008KT 10SM SCT060 SCT080 BKN095 23/18 A3008 RMK AO2 T02250184
  • 242135Z AUTO 16013G16KT 10SM -RA SCT046 SCT050 BKN070 23/17 A3009 RMK AO2 T02310170
  • 242115Z AUTO 15010G15KT 10SM SCT050 SCT060 24/18 A3009 RMK AO2 T02370175
  • 242055Z AUTO 16010KT 10SM CLR 25/17 A3008 RMK AO2 T02470173
  • 242035Z AUTO 17011G15KT 10SM CLR 25/17 A3009 RMK AO2 T02460172
  • 242015Z AUTO 15012G15KT 10SM CLR 25/18 A3009 RMK AO2 T02480176
  • 241955Z AUTO 16011G19KT 10SM SCT032 26/18 A3009 RMK AO2 T02590182
  • 241935Z AUTO 14017G20KT 10SM SCT032 26/18 A3009 RMK AO2 T02610182

TAF KEFK
Valid from the 25 at 00:00 until the 26 at 00:00 UTC


242320Z 2500/2524 17008KT P6SM VCSH SCT035 BKN070
FM250700 17006KT P6SM BKN025
FM251400 24009KT P6SM SCT030
FM251900 28009G17KT P6SM VCSH BKN040
KZBW FIR / North America



MET'MAP, your aeronautical weather chart ! - Copyright ORBIFLY December 2007 - Disclaimer

ORBIFLY MET'MAP TEAM :

Programming & Development : Alexandra Zaïnal
Original concept : Baudouin d'Aumeries
Technical & hardware support : Manuel Goepfert
Assistance : Marc-Olivier Méhu




SOURCES & CREDITS :

   NOAA